sensor_id;sensor_type;location;lat;lon;timestamp;temperature;humidity
16767;DHT22;8501;49.926;8.404;2022-09-02T00:01:34;20.90;99.90
16767;DHT22;8501;49.926;8.404;2022-09-02T00:04:11;20.90;99.90
16767;DHT22;8501;49.926;8.404;2022-09-02T00:06:39;20.90;99.90
16767;DHT22;8501;49.926;8.404;2022-09-02T00:09:07;20.80;99.90
16767;DHT22;8501;49.926;8.404;2022-09-02T00:11:35;20.70;99.90
16767;DHT22;8501;49.926;8.404;2022-09-02T00:14:04;20.80;99.90
16767;DHT22;8501;49.926;8.404;2022-09-02T00:16:30;20.80;99.90
16767;DHT22;8501;49.926;8.404;2022-09-02T00:18:58;20.80;99.90
16767;DHT22;8501;49.926;8.404;2022-09-02T00:21:23;20.70;99.90
16767;DHT22;8501;49.926;8.404;2022-09-02T00:23:50;20.60;99.90
16767;DHT22;8501;49.926;8.404;2022-09-02T00:26:16;20.70;99.90
16767;DHT22;8501;49.926;8.404;2022-09-02T00:28:42;20.60;99.90
16767;DHT22;8501;49.926;8.404;2022-09-02T00:31:08;20.70;99.90
16767;DHT22;8501;49.926;8.404;2022-09-02T00:33:33;20.70;99.90
16767;DHT22;8501;49.926;8.404;2022-09-02T00:36:01;20.70;99.90
16767;DHT22;8501;49.926;8.404;2022-09-02T00:38:27;20.70;99.90
16767;DHT22;8501;49.926;8.404;2022-09-02T00:40:53;20.70;99.90
16767;DHT22;8501;49.926;8.404;2022-09-02T00:43:42;20.60;99.90
16767;DHT22;8501;49.926;8.404;2022-09-02T00:46:10;20.70;99.90
16767;DHT22;8501;49.926;8.404;2022-09-02T00:48:39;20.60;99.90
16767;DHT22;8501;49.926;8.404;2022-09-02T00:51:07;20.60;99.90
16767;DHT22;8501;49.926;8.404;2022-09-02T00:53:34;20.70;99.90
16767;DHT22;8501;49.926;8.404;2022-09-02T00:56:01;20.60;99.90
16767;DHT22;8501;49.926;8.404;2022-09-02T00:58:30;20.60;99.90
16767;DHT22;8501;49.926;8.404;2022-09-02T01:00:57;20.60;99.90
16767;DHT22;8501;49.926;8.404;2022-09-02T01:03:26;20.60;99.90
16767;DHT22;8501;49.926;8.404;2022-09-02T01:05:52;20.50;99.90
16767;DHT22;8501;49.926;8.404;2022-09-02T01:08:23;20.50;99.90
16767;DHT22;8501;49.926;8.404;2022-09-02T01:10:50;20.50;99.90
16767;DHT22;8501;49.926;8.404;2022-09-02T01:13:21;20.50;99.90
16767;DHT22;8501;49.926;8.404;2022-09-02T01:15:52;20.40;99.90
16767;DHT22;8501;49.926;8.404;2022-09-02T01:18:22;20.30;99.90
16767;DHT22;8501;49.926;8.404;2022-09-02T01:20:48;20.30;99.90
16767;DHT22;8501;49.926;8.404;2022-09-02T01:23:15;20.30;99.90
16767;DHT22;8501;49.926;8.404;2022-09-02T01:25:41;20.30;99.90
16767;DHT22;8501;49.926;8.404;2022-09-02T01:28:10;20.30;99.90
16767;DHT22;8501;49.926;8.404;2022-09-02T01:30:39;20.30;99.90
16767;DHT22;8501;49.926;8.404;2022-09-02T01:33:07;20.30;99.90
16767;DHT22;8501;49.926;8.404;2022-09-02T01:35:33;20.20;99.90
16767;DHT22;8501;49.926;8.404;2022-09-02T01:37:59;20.20;99.90
16767;DHT22;8501;49.926;8.404;2022-09-02T01:40:27;20.20;99.90
16767;DHT22;8501;49.926;8.404;2022-09-02T01:42:57;20.10;99.90
16767;DHT22;8501;49.926;8.404;2022-09-02T01:45:23;20.10;99.90
16767;DHT22;8501;49.926;8.404;2022-09-02T01:47:50;20.10;99.90
16767;DHT22;8501;49.926;8.404;2022-09-02T01:50:17;20.10;99.90
16767;DHT22;8501;49.926;8.404;2022-09-02T01:52:43;20.00;99.90
16767;DHT22;8501;49.926;8.404;2022-09-02T01:55:09;20.00;99.90
16767;DHT22;8501;49.926;8.404;2022-09-02T01:57:34;20.00;99.90
16767;DHT22;8501;49.926;8.404;2022-09-02T02:00:00;20.00;99.90
16767;DHT22;8501;49.926;8.404;2022-09-02T02:02:27;20.00;99.90
16767;DHT22;8501;49.926;8.404;2022-09-02T02:04:53;20.00;99.90
16767;DHT22;8501;49.926;8.404;2022-09-02T02:07:20;20.00;99.90
16767;DHT22;8501;49.926;8.404;2022-09-02T02:09:47;19.90;99.90
16767;DHT22;8501;49.926;8.404;2022-09-02T02:12:13;19.90;99.90
16767;DHT22;8501;49.926;8.404;2022-09-02T02:14:39;19.90;99.90
16767;DHT22;8501;49.926;8.404;2022-09-02T02:17:05;19.90;99.90
16767;DHT22;8501;49.926;8.404;2022-09-02T02:19:30;19.90;99.90
16767;DHT22;8501;49.926;8.404;2022-09-02T02:21:56;19.90;99.90
16767;DHT22;8501;49.926;8.404;2022-09-02T02:24:22;19.90;99.90
16767;DHT22;8501;49.926;8.404;2022-09-02T02:26:48;20.00;99.90
16767;DHT22;8501;49.926;8.404;2022-09-02T02:29:13;20.00;99.90
16767;DHT22;8501;49.926;8.404;2022-09-02T02:31:40;19.90;99.90
16767;DHT22;8501;49.926;8.404;2022-09-02T02:34:06;19.80;99.90
16767;DHT22;8501;49.926;8.404;2022-09-02T02:36:32;19.80;99.90
16767;DHT22;8501;49.926;8.404;2022-09-02T02:38:58;19.90;99.90
16767;DHT22;8501;49.926;8.404;2022-09-02T02:41:26;19.80;99.90
16767;DHT22;8501;49.926;8.404;2022-09-02T02:43:52;19.80;99.90
16767;DHT22;8501;49.926;8.404;2022-09-02T02:46:18;19.80;99.90
16767;DHT22;8501;49.926;8.404;2022-09-02T02:48:44;19.70;99.90
16767;DHT22;8501;49.926;8.404;2022-09-02T02:51:10;19.70;99.90
16767;DHT22;8501;49.926;8.404;2022-09-02T02:53:36;19.70;99.90
16767;DHT22;8501;49.926;8.404;2022-09-02T02:56:03;19.70;99.90
16767;DHT22;8501;49.926;8.404;2022-09-02T02:58:29;19.60;99.90
16767;DHT22;8501;49.926;8.404;2022-09-02T03:00:56;19.60;99.90
16767;DHT22;8501;49.926;8.404;2022-09-02T03:03:22;19.60;99.90
16767;DHT22;8501;49.926;8.404;2022-09-02T03:05:48;19.60;99.90
16767;DHT22;8501;49.926;8.404;2022-09-02T03:08:15;19.60;99.90
16767;DHT22;8501;49.926;8.404;2022-09-02T03:10:43;19.60;99.90
16767;DHT22;8501;49.926;8.404;2022-09-02T03:13:10;19.50;99.90
16767;DHT22;8501;49.926;8.404;2022-09-02T03:15:37;19.50;99.90
16767;DHT22;8501;49.926;8.404;2022-09-02T03:18:03;19.50;99.90
16767;DHT22;8501;49.926;8.404;2022-09-02T03:20:30;19.50;99.90
16767;DHT22;8501;49.926;8.404;2022-09-02T03:22:57;19.40;99.90
16767;DHT22;8501;49.926;8.404;2022-09-02T03:25:24;19.40;99.90
16767;DHT22;8501;49.926;8.404;2022-09-02T03:27:50;19.30;99.90
16767;DHT22;8501;49.926;8.404;2022-09-02T03:30:19;19.30;99.90
16767;DHT22;8501;49.926;8.404;2022-09-02T03:32:45;19.20;99.90
16767;DHT22;8501;49.926;8.404;2022-09-02T03:35:13;19.20;99.90
16767;DHT22;8501;49.926;8.404;2022-09-02T03:37:40;19.20;99.90
16767;DHT22;8501;49.926;8.404;2022-09-02T03:42:35;19.20;99.90
16767;DHT22;8501;49.926;8.404;2022-09-02T03:45:01;19.20;99.90
16767;DHT22;8501;49.926;8.404;2022-09-02T03:47:27;19.10;99.90
16767;DHT22;8501;49.926;8.404;2022-09-02T03:49:54;19.00;99.90
16767;DHT22;8501;49.926;8.404;2022-09-02T03:52:20;19.00;99.90
16767;DHT22;8501;49.926;8.404;2022-09-02T03:54:45;19.00;99.90
16767;DHT22;8501;49.926;8.404;2022-09-02T03:57:11;19.00;99.90
16767;DHT22;8501;49.926;8.404;2022-09-02T03:59:37;19.10;99.90
16767;DHT22;8501;49.926;8.404;2022-09-02T04:02:03;19.00;99.90
16767;DHT22;8501;49.926;8.404;2022-09-02T04:04:29;19.00;99.90
16767;DHT22;8501;49.926;8.404;2022-09-02T04:06:55;19.00;99.90
16767;DHT22;8501;49.926;8.404;2022-09-02T04:09:21;19.00;99.90
16767;DHT22;8501;49.926;8.404;2022-09-02T04:11:46;18.90;99.90
16767;DHT22;8501;49.926;8.404;2022-09-02T04:14:13;18.80;99.90
16767;DHT22;8501;49.926;8.404;2022-09-02T04:16:38;18.80;99.90
16767;DHT22;8501;49.926;8.404;2022-09-02T04:19:04;18.80;99.90
16767;DHT22;8501;49.926;8.404;2022-09-02T04:21:32;18.80;99.90
16767;DHT22;8501;49.926;8.404;2022-09-02T04:23:59;18.90;99.90
16767;DHT22;8501;49.926;8.404;2022-09-02T04:26:24;18.90;99.90
16767;DHT22;8501;49.926;8.404;2022-09-02T04:28:50;18.70;99.90
16767;DHT22;8501;49.926;8.404;2022-09-02T04:31:18;18.80;99.90
16767;DHT22;8501;49.926;8.404;2022-09-02T04:33:44;18.80;99.90
16767;DHT22;8501;49.926;8.404;2022-09-02T04:36:12;18.80;99.90
16767;DHT22;8501;49.926;8.404;2022-09-02T04:38:38;18.70;99.90
16767;DHT22;8501;49.926;8.404;2022-09-02T04:41:10;18.70;99.90
16767;DHT22;8501;49.926;8.404;2022-09-02T04:43:36;18.80;99.90
16767;DHT22;8501;49.926;8.404;2022-09-02T04:46:07;18.70;99.90
16767;DHT22;8501;49.926;8.404;2022-09-02T04:48:33;18.70;99.90
16767;DHT22;8501;49.926;8.404;2022-09-02T04:53:49;18.70;99.90
16767;DHT22;8501;49.926;8.404;2022-09-02T04:56:18;18.70;99.90
16767;DHT22;8501;49.926;8.404;2022-09-02T04:58:44;18.60;99.90
16767;DHT22;8501;49.926;8.404;2022-09-02T05:01:13;18.70;99.90
16767;DHT22;8501;49.926;8.404;2022-09-02T05:03:41;18.70;99.90
16767;DHT22;8501;49.926;8.404;2022-09-02T05:06:11;18.70;99.90
16767;DHT22;8501;49.926;8.404;2022-09-02T05:08:38;18.70;99.90
16767;DHT22;8501;49.926;8.404;2022-09-02T05:11:11;18.70;99.90
16767;DHT22;8501;49.926;8.404;2022-09-02T05:13:37;18.70;99.90
16767;DHT22;8501;49.926;8.404;2022-09-02T05:16:04;18.70;99.90
16767;DHT22;8501;49.926;8.404;2022-09-02T05:18:30;18.70;99.90
16767;DHT22;8501;49.926;8.404;2022-09-02T05:20:55;18.70;99.90
16767;DHT22;8501;49.926;8.404;2022-09-02T05:23:21;18.60;99.90
16767;DHT22;8501;49.926;8.404;2022-09-02T05:25:47;18.70;99.90
16767;DHT22;8501;49.926;8.404;2022-09-02T05:28:13;18.70;99.90
16767;DHT22;8501;49.926;8.404;2022-09-02T05:30:40;18.70;99.90
16767;DHT22;8501;49.926;8.404;2022-09-02T05:35:43;18.60;99.90
16767;DHT22;8501;49.926;8.404;2022-09-02T05:38:18;18.60;99.90
16767;DHT22;8501;49.926;8.404;2022-09-02T05:40:45;18.70;99.90
16767;DHT22;8501;49.926;8.404;2022-09-02T05:43:16;18.70;99.90
16767;DHT22;8501;49.926;8.404;2022-09-02T05:45:42;18.70;99.90
16767;DHT22;8501;49.926;8.404;2022-09-02T05:48:08;18.60;99.90
16767;DHT22;8501;49.926;8.404;2022-09-02T05:50:52;18.60;99.90
16767;DHT22;8501;49.926;8.404;2022-09-02T05:53:18;18.70;99.90
16767;DHT22;8501;49.926;8.404;2022-09-02T05:55:43;18.70;99.90
16767;DHT22;8501;49.926;8.404;2022-09-02T05:58:09;18.80;99.90
16767;DHT22;8501;49.926;8.404;2022-09-02T06:00:35;18.80;99.90
16767;DHT22;8501;49.926;8.404;2022-09-02T06:03:01;18.80;99.90
16767;DHT22;8501;49.926;8.404;2022-09-02T06:05:26;18.80;99.90
16767;DHT22;8501;49.926;8.404;2022-09-02T06:07:52;18.90;99.90
16767;DHT22;8501;49.926;8.404;2022-09-02T06:10:18;18.90;99.90
16767;DHT22;8501;49.926;8.404;2022-09-02T06:15:14;18.90;99.90
16767;DHT22;8501;49.926;8.404;2022-09-02T06:17:40;18.90;99.90
16767;DHT22;8501;49.926;8.404;2022-09-02T06:20:07;19.00;99.90
16767;DHT22;8501;49.926;8.404;2022-09-02T06:22:34;18.90;99.90
16767;DHT22;8501;49.926;8.404;2022-09-02T06:24:59;19.00;99.90
16767;DHT22;8501;49.926;8.404;2022-09-02T06:27:25;19.00;99.90
16767;DHT22;8501;49.926;8.404;2022-09-02T06:29:51;19.10;99.90
16767;DHT22;8501;49.926;8.404;2022-09-02T06:32:16;19.10;99.90
16767;DHT22;8501;49.926;8.404;2022-09-02T06:34:42;19.00;99.90
16767;DHT22;8501;49.926;8.404;2022-09-02T06:37:08;19.10;99.90
16767;DHT22;8501;49.926;8.404;2022-09-02T06:39:33;19.10;99.90
16767;DHT22;8501;49.926;8.404;2022-09-02T06:42:01;19.10;99.90
16767;DHT22;8501;49.926;8.404;2022-09-02T06:44:27;19.20;99.90
16767;DHT22;8501;49.926;8.404;2022-09-02T06:46:56;19.30;99.90
16767;DHT22;8501;49.926;8.404;2022-09-02T06:49:24;19.20;99.90
16767;DHT22;8501;49.926;8.404;2022-09-02T06:51:53;19.30;99.90
16767;DHT22;8501;49.926;8.404;2022-09-02T06:54:21;19.40;99.90
16767;DHT22;8501;49.926;8.404;2022-09-02T06:56:49;19.40;99.90
16767;DHT22;8501;49.926;8.404;2022-09-02T06:59:17;19.50;99.90
16767;DHT22;8501;49.926;8.404;2022-09-02T07:01:44;19.50;99.90
16767;DHT22;8501;49.926;8.404;2022-09-02T07:04:10;19.60;99.90
16767;DHT22;8501;49.926;8.404;2022-09-02T07:06:54;19.60;99.90
16767;DHT22;8501;49.926;8.404;2022-09-02T07:09:23;19.60;99.90
16767;DHT22;8501;49.926;8.404;2022-09-02T07:11:56;19.70;99.90
16767;DHT22;8501;49.926;8.404;2022-09-02T07:14:22;19.70;99.90
16767;DHT22;8501;49.926;8.404;2022-09-02T07:16:51;19.70;99.90
16767;DHT22;8501;49.926;8.404;2022-09-02T07:19:18;19.70;99.90
16767;DHT22;8501;49.926;8.404;2022-09-02T07:21:44;19.70;99.90
16767;DHT22;8501;49.926;8.404;2022-09-02T07:24:14;19.80;99.90
16767;DHT22;8501;49.926;8.404;2022-09-02T07:27:10;19.90;99.90
16767;DHT22;8501;49.926;8.404;2022-09-02T07:33:30;20.00;99.90
16767;DHT22;8501;49.926;8.404;2022-09-02T07:35:58;20.00;99.90
16767;DHT22;8501;49.926;8.404;2022-09-02T07:38:24;20.10;99.90
16767;DHT22;8501;49.926;8.404;2022-09-02T07:40:50;20.10;99.90
16767;DHT22;8501;49.926;8.404;2022-09-02T07:43:15;20.20;99.90
16767;DHT22;8501;49.926;8.404;2022-09-02T07:45:41;20.20;99.90
16767;DHT22;8501;49.926;8.404;2022-09-02T07:50:37;20.30;99.90
16767;DHT22;8501;49.926;8.404;2022-09-02T07:53:04;20.30;99.90
16767;DHT22;8501;49.926;8.404;2022-09-02T07:55:31;20.40;99.90
16767;DHT22;8501;49.926;8.404;2022-09-02T07:57:59;20.40;99.90
16767;DHT22;8501;49.926;8.404;2022-09-02T08:00:25;20.50;99.90
16767;DHT22;8501;49.926;8.404;2022-09-02T08:02:52;20.60;99.90
16767;DHT22;8501;49.926;8.404;2022-09-02T08:05:23;20.60;99.90
16767;DHT22;8501;49.926;8.404;2022-09-02T08:07:58;20.70;99.90
16767;DHT22;8501;49.926;8.404;2022-09-02T08:10:26;20.70;99.90
16767;DHT22;8501;49.926;8.404;2022-09-02T08:12:58;20.80;99.90
16767;DHT22;8501;49.926;8.404;2022-09-02T08:15:27;20.90;99.90
16767;DHT22;8501;49.926;8.404;2022-09-02T08:17:54;20.90;99.90
16767;DHT22;8501;49.926;8.404;2022-09-02T08:20:20;20.90;99.90
16767;DHT22;8501;49.926;8.404;2022-09-02T08:22:46;20.90;99.90
16767;DHT22;8501;49.926;8.404;2022-09-02T08:25:11;21.00;99.90
16767;DHT22;8501;49.926;8.404;2022-09-02T08:27:37;21.10;99.90
16767;DHT22;8501;49.926;8.404;2022-09-02T08:30:04;21.10;99.90
16767;DHT22;8501;49.926;8.404;2022-09-02T08:32:30;21.20;99.90
16767;DHT22;8501;49.926;8.404;2022-09-02T08:34:57;21.20;99.90
16767;DHT22;8501;49.926;8.404;2022-09-02T08:37:23;21.20;99.90
16767;DHT22;8501;49.926;8.404;2022-09-02T08:39:49;21.40;99.90
16767;DHT22;8501;49.926;8.404;2022-09-02T08:47:50;21.50;99.90
16767;DHT22;8501;49.926;8.404;2022-09-02T08:50:49;21.60;99.90
16767;DHT22;8501;49.926;8.404;2022-09-02T08:56:25;21.70;99.90
16767;DHT22;8501;49.926;8.404;2022-09-02T08:58:53;21.80;99.90
16767;DHT22;8501;49.926;8.404;2022-09-02T09:01:39;21.80;99.90
16767;DHT22;8501;49.926;8.404;2022-09-02T09:10:07;22.00;99.90
16767;DHT22;8501;49.926;8.404;2022-09-02T09:13:00;22.10;99.90
16767;DHT22;8501;49.926;8.404;2022-09-02T09:15:43;22.20;99.90
16767;DHT22;8501;49.926;8.404;2022-09-02T09:18:16;22.30;99.90
16767;DHT22;8501;49.926;8.404;2022-09-02T09:20:43;22.30;99.90
16767;DHT22;8501;49.926;8.404;2022-09-02T09:23:30;22.40;99.90
16767;DHT22;8501;49.926;8.404;2022-09-02T09:26:11;22.40;99.90
16767;DHT22;8501;49.926;8.404;2022-09-02T09:28:42;22.50;99.90
16767;DHT22;8501;49.926;8.404;2022-09-02T09:31:12;22.60;99.90
16767;DHT22;8501;49.926;8.404;2022-09-02T09:33:37;22.60;99.90
16767;DHT22;8501;49.926;8.404;2022-09-02T09:36:03;22.70;99.90
16767;DHT22;8501;49.926;8.404;2022-09-02T09:38:34;22.70;99.90
16767;DHT22;8501;49.926;8.404;2022-09-02T09:43:38;22.90;99.90
16767;DHT22;8501;49.926;8.404;2022-09-02T09:46:26;23.00;99.90
16767;DHT22;8501;49.926;8.404;2022-09-02T09:48:52;23.00;99.90
16767;DHT22;8501;49.926;8.404;2022-09-02T09:51:19;23.10;99.90
16767;DHT22;8501;49.926;8.404;2022-09-02T09:53:45;23.10;99.60
16767;DHT22;8501;49.926;8.404;2022-09-02T09:58:44;23.30;97.70
16767;DHT22;8501;49.926;8.404;2022-09-02T10:03:54;23.40;96.50
16767;DHT22;8501;49.926;8.404;2022-09-02T10:06:34;23.40;96.50
16767;DHT22;8501;49.926;8.404;2022-09-02T10:09:06;23.40;96.70
16767;DHT22;8501;49.926;8.404;2022-09-02T10:14:40;23.60;96.20
16767;DHT22;8501;49.926;8.404;2022-09-02T10:17:26;23.70;96.00
16767;DHT22;8501;49.926;8.404;2022-09-02T10:20:20;23.70;93.90
16767;DHT22;8501;49.926;8.404;2022-09-02T10:31:18;23.80;93.50
16767;DHT22;8501;49.926;8.404;2022-09-02T10:34:09;23.90;92.20
16767;DHT22;8501;49.926;8.404;2022-09-02T10:47:36;24.10;92.00
16767;DHT22;8501;49.926;8.404;2022-09-02T10:50:12;24.20;91.90
16767;DHT22;8501;49.926;8.404;2022-09-02T10:55:47;24.10;93.00
16767;DHT22;8501;49.926;8.404;2022-09-02T10:58:23;24.20;92.10
16767;DHT22;8501;49.926;8.404;2022-09-02T11:00:54;24.30;91.90
16767;DHT22;8501;49.926;8.404;2022-09-02T11:05:56;24.30;92.30
16767;DHT22;8501;49.926;8.404;2022-09-02T11:08:32;24.40;92.60
16767;DHT22;8501;49.926;8.404;2022-09-02T11:11:08;24.30;92.30
16767;DHT22;8501;49.926;8.404;2022-09-02T11:16:33;24.40;92.10
16767;DHT22;8501;49.926;8.404;2022-09-02T11:19:14;24.50;91.70
16767;DHT22;8501;49.926;8.404;2022-09-02T11:24:13;24.60;91.30
16767;DHT22;8501;49.926;8.404;2022-09-02T11:26:48;24.60;91.20
16767;DHT22;8501;49.926;8.404;2022-09-02T11:29:25;24.60;91.30
16767;DHT22;8501;49.926;8.404;2022-09-02T11:32:16;24.70;91.40
16767;DHT22;8501;49.926;8.404;2022-09-02T11:34:48;24.80;91.10
16767;DHT22;8501;49.926;8.404;2022-09-02T11:37:42;24.80;91.00
16767;DHT22;8501;49.926;8.404;2022-09-02T11:40:16;24.80;91.30
16767;DHT22;8501;49.926;8.404;2022-09-02T11:43:11;24.80;90.70
16767;DHT22;8501;49.926;8.404;2022-09-02T11:45:55;24.90;91.20
16767;DHT22;8501;49.926;8.404;2022-09-02T11:48:53;24.90;91.30
16767;DHT22;8501;49.926;8.404;2022-09-02T11:51:31;25.00;91.20
16767;DHT22;8501;49.926;8.404;2022-09-02T11:54:02;25.00;91.20
16767;DHT22;8501;49.926;8.404;2022-09-02T11:56:35;25.10;91.10
16767;DHT22;8501;49.926;8.404;2022-09-02T11:59:04;25.10;90.80
16767;DHT22;8501;49.926;8.404;2022-09-02T12:01:51;25.20;90.50
16767;DHT22;8501;49.926;8.404;2022-09-02T12:04:23;25.30;90.50
16767;DHT22;8501;49.926;8.404;2022-09-02T12:09:49;25.40;90.30
16767;DHT22;8501;49.926;8.404;2022-09-02T12:26:05;25.50;88.30
16767;DHT22;8501;49.926;8.404;2022-09-02T12:28:31;25.50;87.00
16767;DHT22;8501;49.926;8.404;2022-09-02T12:33:49;25.70;87.20
16767;DHT22;8501;49.926;8.404;2022-09-02T12:50:00;25.90;84.50
16767;DHT22;8501;49.926;8.404;2022-09-02T12:57:42;25.90;82.80
16767;DHT22;8501;49.926;8.404;2022-09-02T13:00:15;25.80;81.30
16767;DHT22;8501;49.926;8.404;2022-09-02T13:03:11;25.70;82.10
16767;DHT22;8501;49.926;8.404;2022-09-02T13:17:21;26.00;81.20
16767;DHT22;8501;49.926;8.404;2022-09-02T13:31:23;26.30;78.90
16767;DHT22;8501;49.926;8.404;2022-09-02T13:34:04;26.40;79.30
16767;DHT22;8501;49.926;8.404;2022-09-02T13:36:40;26.40;78.80
16767;DHT22;8501;49.926;8.404;2022-09-02T13:39:39;26.50;78.50
16767;DHT22;8501;49.926;8.404;2022-09-02T13:42:25;26.60;78.20
16767;DHT22;8501;49.926;8.404;2022-09-02T13:45:08;26.70;78.20
16767;DHT22;8501;49.926;8.404;2022-09-02T13:47:34;26.70;78.00
16767;DHT22;8501;49.926;8.404;2022-09-02T13:50:00;26.80;78.10
16767;DHT22;8501;49.926;8.404;2022-09-02T13:52:25;26.80;78.60
16767;DHT22;8501;49.926;8.404;2022-09-02T13:54:56;27.00;78.80
16767;DHT22;8501;49.926;8.404;2022-09-02T13:57:25;27.00;78.90
16767;DHT22;8501;49.926;8.404;2022-09-02T13:59:59;27.20;77.90
16767;DHT22;8501;49.926;8.404;2022-09-02T14:02:29;27.20;78.10
16767;DHT22;8501;49.926;8.404;2022-09-02T14:05:11;27.30;77.30
16767;DHT22;8501;49.926;8.404;2022-09-02T14:07:40;27.50;77.10
16767;DHT22;8501;49.926;8.404;2022-09-02T14:10:10;27.60;76.90
16767;DHT22;8501;49.926;8.404;2022-09-02T14:12:37;27.80;76.40
16767;DHT22;8501;49.926;8.404;2022-09-02T14:15:06;27.90;76.50
16767;DHT22;8501;49.926;8.404;2022-09-02T14:17:32;28.30;76.00
16767;DHT22;8501;49.926;8.404;2022-09-02T14:20:17;28.40;74.60
16767;DHT22;8501;49.926;8.404;2022-09-02T14:22:50;28.50;74.40
16767;DHT22;8501;49.926;8.404;2022-09-02T14:25:16;28.80;74.00
16767;DHT22;8501;49.926;8.404;2022-09-02T14:27:53;29.10;73.10
16767;DHT22;8501;49.926;8.404;2022-09-02T14:30:29;29.30;72.60
16767;DHT22;8501;49.926;8.404;2022-09-02T14:33:57;29.70;71.80
16767;DHT22;8501;49.926;8.404;2022-09-02T14:36:07;29.90;70.80
16767;DHT22;8501;49.926;8.404;2022-09-02T14:39:06;30.10;69.40
16767;DHT22;8501;49.926;8.404;2022-09-02T14:41:34;30.10;69.60
16767;DHT22;8501;49.926;8.404;2022-09-02T14:44:23;30.20;68.80
16767;DHT22;8501;49.926;8.404;2022-09-02T14:46:53;30.50;67.60
16767;DHT22;8501;49.926;8.404;2022-09-02T14:49:28;30.80;66.10
16767;DHT22;8501;49.926;8.404;2022-09-02T14:51:58;30.80;66.00
16767;DHT22;8501;49.926;8.404;2022-09-02T14:57:01;31.10;64.60
16767;DHT22;8501;49.926;8.404;2022-09-02T14:59:27;31.10;63.00
16767;DHT22;8501;49.926;8.404;2022-09-02T15:01:54;31.20;62.60
16767;DHT22;8501;49.926;8.404;2022-09-02T15:04:21;31.30;62.40
16767;DHT22;8501;49.926;8.404;2022-09-02T15:06:47;31.40;61.70
16767;DHT22;8501;49.926;8.404;2022-09-02T15:09:19;31.30;61.80
16767;DHT22;8501;49.926;8.404;2022-09-02T15:11:50;31.40;61.40
16767;DHT22;8501;49.926;8.404;2022-09-02T15:14:17;31.50;61.30
16767;DHT22;8501;49.926;8.404;2022-09-02T15:16:43;31.50;60.70
16767;DHT22;8501;49.926;8.404;2022-09-02T15:19:08;31.20;60.50
16767;DHT22;8501;49.926;8.404;2022-09-02T15:21:34;31.10;60.30
16767;DHT22;8501;49.926;8.404;2022-09-02T15:23:59;30.70;60.70
16767;DHT22;8501;49.926;8.404;2022-09-02T15:26:25;30.40;60.80
16767;DHT22;8501;49.926;8.404;2022-09-02T15:28:51;29.90;61.30
16767;DHT22;8501;49.926;8.404;2022-09-02T15:31:16;29.30;62.30
16767;DHT22;8501;49.926;8.404;2022-09-02T15:33:48;28.80;63.30
16767;DHT22;8501;49.926;8.404;2022-09-02T15:36:13;28.50;63.80
16767;DHT22;8501;49.926;8.404;2022-09-02T15:38:39;28.30;64.10
16767;DHT22;8501;49.926;8.404;2022-09-02T15:41:20;28.10;64.70
16767;DHT22;8501;49.926;8.404;2022-09-02T15:43:46;28.00;65.70
16767;DHT22;8501;49.926;8.404;2022-09-02T15:46:24;27.90;64.70
16767;DHT22;8501;49.926;8.404;2022-09-02T15:48:51;27.80;65.50
16767;DHT22;8501;49.926;8.404;2022-09-02T15:51:18;27.60;65.40
16767;DHT22;8501;49.926;8.404;2022-09-02T15:53:45;27.50;65.50
16767;DHT22;8501;49.926;8.404;2022-09-02T15:56:15;27.50;65.90
16767;DHT22;8501;49.926;8.404;2022-09-02T15:58:41;27.40;65.80
16767;DHT22;8501;49.926;8.404;2022-09-02T16:01:07;27.30;65.80
16767;DHT22;8501;49.926;8.404;2022-09-02T16:03:34;27.30;66.10
16767;DHT22;8501;49.926;8.404;2022-09-02T16:06:01;27.10;65.80
16767;DHT22;8501;49.926;8.404;2022-09-02T16:08:26;27.00;65.40
16767;DHT22;8501;49.926;8.404;2022-09-02T16:10:52;26.90;65.30
16767;DHT22;8501;49.926;8.404;2022-09-02T16:13:18;26.90;65.50
16767;DHT22;8501;49.926;8.404;2022-09-02T16:15:46;26.90;65.80
16767;DHT22;8501;49.926;8.404;2022-09-02T16:18:11;26.80;65.70
16767;DHT22;8501;49.926;8.404;2022-09-02T16:20:37;26.80;65.70
16767;DHT22;8501;49.926;8.404;2022-09-02T16:23:03;26.70;65.80
16767;DHT22;8501;49.926;8.404;2022-09-02T16:25:28;26.70;66.00
16767;DHT22;8501;49.926;8.404;2022-09-02T16:27:54;26.60;65.30
16767;DHT22;8501;49.926;8.404;2022-09-02T16:30:21;26.60;65.30
16767;DHT22;8501;49.926;8.404;2022-09-02T16:32:46;26.70;66.40
16767;DHT22;8501;49.926;8.404;2022-09-02T16:35:14;26.70;65.50
16767;DHT22;8501;49.926;8.404;2022-09-02T16:40:06;26.50;66.20
16767;DHT22;8501;49.926;8.404;2022-09-02T16:42:32;26.60;66.00
16767;DHT22;8501;49.926;8.404;2022-09-02T16:44:57;26.50;65.80
16767;DHT22;8501;49.926;8.404;2022-09-02T16:47:23;26.40;66.20
16767;DHT22;8501;49.926;8.404;2022-09-02T16:49:49;26.50;67.30
16767;DHT22;8501;49.926;8.404;2022-09-02T16:52:14;26.50;66.10
16767;DHT22;8501;49.926;8.404;2022-09-02T16:54:40;26.40;66.20
16767;DHT22;8501;49.926;8.404;2022-09-02T16:57:05;26.30;66.80
16767;DHT22;8501;49.926;8.404;2022-09-02T16:59:31;26.30;67.30
16767;DHT22;8501;49.926;8.404;2022-09-02T17:01:57;26.30;67.60
16767;DHT22;8501;49.926;8.404;2022-09-02T17:04:22;26.10;67.70
16767;DHT22;8501;49.926;8.404;2022-09-02T17:06:48;26.10;67.90
16767;DHT22;8501;49.926;8.404;2022-09-02T17:09:14;26.10;68.00
16767;DHT22;8501;49.926;8.404;2022-09-02T17:11:40;26.10;68.00
16767;DHT22;8501;49.926;8.404;2022-09-02T17:14:11;26.10;68.60
16767;DHT22;8501;49.926;8.404;2022-09-02T17:16:38;26.10;68.70
16767;DHT22;8501;49.926;8.404;2022-09-02T17:19:04;26.00;68.40
16767;DHT22;8501;49.926;8.404;2022-09-02T17:21:42;26.00;69.00
16767;DHT22;8501;49.926;8.404;2022-09-02T17:24:10;25.90;69.00
16767;DHT22;8501;49.926;8.404;2022-09-02T17:26:38;25.90;69.30
16767;DHT22;8501;49.926;8.404;2022-09-02T17:29:15;25.90;69.80
16767;DHT22;8501;49.926;8.404;2022-09-02T17:31:42;25.80;69.80
16767;DHT22;8501;49.926;8.404;2022-09-02T17:34:08;25.80;69.80
16767;DHT22;8501;49.926;8.404;2022-09-02T17:36:36;25.70;70.40
16767;DHT22;8501;49.926;8.404;2022-09-02T17:39:06;25.70;69.60
16767;DHT22;8501;49.926;8.404;2022-09-02T17:41:34;25.60;70.10
16767;DHT22;8501;49.926;8.404;2022-09-02T17:44:20;25.50;70.00
16767;DHT22;8501;49.926;8.404;2022-09-02T17:46:46;25.50;70.20
16767;DHT22;8501;49.926;8.404;2022-09-02T17:49:12;25.50;70.20
16767;DHT22;8501;49.926;8.404;2022-09-02T17:51:38;25.50;70.20
16767;DHT22;8501;49.926;8.404;2022-09-02T17:54:04;25.50;70.60
16767;DHT22;8501;49.926;8.404;2022-09-02T18:01:59;25.20;70.80
16767;DHT22;8501;49.926;8.404;2022-09-02T18:04:58;25.10;70.80
16767;DHT22;8501;49.926;8.404;2022-09-02T18:10:07;25.00;71.30
16767;DHT22;8501;49.926;8.404;2022-09-02T18:12:34;25.00;71.40
16767;DHT22;8501;49.926;8.404;2022-09-02T18:15:01;25.00;71.40
16767;DHT22;8501;49.926;8.404;2022-09-02T18:17:33;25.00;71.40
16767;DHT22;8501;49.926;8.404;2022-09-02T18:22:57;24.90;71.70
16767;DHT22;8501;49.926;8.404;2022-09-02T18:31:46;24.80;72.40
16767;DHT22;8501;49.926;8.404;2022-09-02T18:37:09;24.60;72.80
16767;DHT22;8501;49.926;8.404;2022-09-02T18:42:40;24.50;73.50